Terminal Aerodrome Forecast
Issued by NWS Duluth, MN

Home | Current Version | Previous Version | Text Only | Print | Product List | Glossary On
Versions: 1 2 3 4 5 6 7 8 9 10 11 12 13 14 15 16 17 18 19 20
291
FTUS43 KDLH 180540
TAFINL
TAF
KINL 180540Z 1806/1906 21005KT P6SM SCT150 WS015/24045KT
     FM181000 22006KT P6SM BKN120
     FM182200 18004KT P6SM SKC=

USA.gov is the U.S. government's official web portal to all federal, state and local government web resources and services.